x

Passage Island, Mi (pilm4) Weather Station

7:00pm - Sat 22nd Jul 2017 All times are CDT. -5 hours from GMT.

  • Wind
    20mph, 21mph gusts
  • Air Temp 52°f
  • Sea Pressure 1011.5mb
  • Passage Island, Mi
  • Passage Island, Mi

More Historic Weather Station data

Upgrade to MSW Pro to gain access to the past 30 days of data for over 8000 Wavebouys and Weather Stations around the globe.

Join Pro

Comparision Forecast

View Surf forecast
   
Sat 07/22 7:00pm 20 21 mph 1011.5mb 52f
6:00pm 16 17 mph 1012mb 51f
5:00pm 15 16 mph 1012.7mb 51f
4:00pm 13 15 mph 1012.6mb 51f
3:00pm 16 17 mph 1012.7mb 51f
2:00pm 17 21 mph 1012.4mb 50f
1:00pm 17 18 mph 1012.9mb 50f
12:00pm 21 23 mph 1012.7mb 51f
11:00am 25 29 mph 1012.7mb 53f
10:00am 23 25 mph 1012.8mb 52f
9:00am 16 17 mph 1012.7mb 51f
8:00am 16 16 mph 1013.1mb 52f
7:00am 17 18 mph 1013.2mb 54f
6:00am 11 14 mph 1012.6mb 53f
5:00am 18 20 mph 1011.9mb 53f
4:00am 17 18 mph 1012.3mb 53f
3:00am 13 14 mph 1012.4mb 52f
2:00am 14 15 mph 1012.3mb 56f
1:00am 15 16 mph 1012.9mb 52f
12:00am 7 8 mph 1012.8mb 53f
Fri 07/21 11:00pm 8 8 mph 1013.9mb 54f
10:00pm 9 10 mph 1013.4mb 52f
9:00pm 8 9 mph 1013.4mb 55f
8:00pm 7 7 mph 1013.5mb 56f
7:00pm 13 14 mph 1013.9mb 60f
6:00pm  -  0 mph 1013.7mb 65f
5:00pm 5 5 mph 1014.4mb 60f
4:00pm 3 5 mph 1013.8mb 61f
3:00pm 9 10 mph 1015.4mb 60f
2:00pm 6 7 mph 1015.9mb 64f
1:00pm 13 14 mph 1016.3mb 63f
12:00pm 14 14 mph 1016mb 62f
11:00am 13 13 mph 1015.5mb 63f
10:00am 15 15 mph 1015.5mb 62f
9:00am 10 10 mph 1014.9mb 59f
8:00am 11 11 mph 1015.2mb 58f
7:00am 22 22 mph 1015mb 61f
6:00am 18 18 mph 1014.9mb 62f
5:00am 21 22 mph 1015mb 60f
4:00am 21 21 mph 1014.4mb 61f
3:00am 14 15 mph 1014.3mb 60f
2:00am 16 16 mph 1014mb 68f
1:00am 17 17 mph 1014.1mb 68f
12:00am 18 18 mph 1014.4mb 67f
Thu 07/20 11:00pm 20 20 mph 1014.2mb 66f
10:00pm 21 22 mph 1013.8mb 66f
9:00pm 17 18 mph 1013.5mb 63f
8:00pm 21 22 mph 1013.4mb 59f
7:00pm 22 22 mph 1013mb 68f
6:00pm 26 26 mph 1013mb 71f
5:00pm 24 25 mph 1012.9mb 66f
4:00pm 24 25 mph 1013.6mb 67f
3:00pm 25 25 mph 1013.6mb 65f
2:00pm 24 25 mph 1013.5mb 69f
1:00pm 25 25 mph 1013.5mb 60f
12:00pm 22 22 mph 1013.6mb 64f
11:00am 25 26 mph 1013.3mb 65f
10:00am 25 25 mph 1012.8mb 63f
9:00am 21 22 mph 1012.8mb 55f
8:00am 9 10 mph 1013mb 53f
7:00am 8 8 mph 1012.7mb 54f
6:00am 6 6 mph 1012.4mb 58f
5:00am 1 2 mph 1012.3mb 56f
4:00am 5 5 mph 1012.4mb 62f
3:00am 9 10 mph 1013mb 60f
2:00am 11 13 mph 1013.1mb 54f
1:00am 10 10 mph 1013.9mb 53f
12:00am 11 11 mph 1014.8mb 57f
Wed 07/19 11:00pm 9 9 mph 1015mb 60f
10:00pm 10 11 mph 1015mb 60f
9:00pm 10 11 mph 1015.4mb 55f
8:00pm 10 11 mph 1015.5mb 56f
7:00pm 9 9 mph 1015.8mb 66f
6:00pm 1 2 mph 1016.2mb 58f
5:00pm 16 17 mph 1017.6mb 58f
4:00pm 11 13 mph 1018mb 56f
3:00pm 13 13 mph 1018.3mb 53f
2:00pm 18 20 mph 1019mb 55f
1:00pm 18 18 mph 1018.5mb 64f
12:00pm 25 26 mph 1018.5mb 63f
11:00am 22 23 mph 1018.3mb 61f
10:00am 21 22 mph 1018.5mb 59f
9:00am 23 23 mph 1018.7mb 61f
8:00am 22 23 mph 1018.6mb 59f
7:00am 22 23 mph 1018.3mb 61f
6:00am 23 23 mph 1017.8mb 61f
5:00am 22 23 mph 1017.6mb 64f
4:00am 23 23 mph 1017mb 65f
3:00am 22 22 mph 1017mb 63f
2:00am 21 22 mph 1016.7mb 57f